sensor_id;sensor_type;location;lat;lon;timestamp;P1;durP1;ratioP1;P2;durP2;ratioP2
13279;SDS011;6708;49.814;8.652;2023-02-13T00:02:16;5.93;;;5.43;;
13279;SDS011;6708;49.814;8.652;2023-02-13T00:04:45;6.37;;;5.73;;
13279;SDS011;6708;49.814;8.652;2023-02-13T00:07:15;7.47;;;5.90;;
13279;SDS011;6708;49.814;8.652;2023-02-13T00:09:44;6.50;;;5.87;;
13279;SDS011;6708;49.814;8.652;2023-02-13T00:12:13;6.03;;;5.53;;
13279;SDS011;6708;49.814;8.652;2023-02-13T00:14:41;6.00;;;5.40;;
13279;SDS011;6708;49.814;8.652;2023-02-13T00:17:13;6.07;;;5.47;;
13279;SDS011;6708;49.814;8.652;2023-02-13T00:19:45;8.13;;;6.43;;
13279;SDS011;6708;49.814;8.652;2023-02-13T00:22:14;7.50;;;5.70;;
13279;SDS011;6708;49.814;8.652;2023-02-13T00:24:45;7.17;;;6.50;;
13279;SDS011;6708;49.814;8.652;2023-02-13T00:27:14;6.60;;;5.90;;
13279;SDS011;6708;49.814;8.652;2023-02-13T00:29:43;7.20;;;6.60;;
13279;SDS011;6708;49.814;8.652;2023-02-13T00:32:18;6.50;;;6.00;;
13279;SDS011;6708;49.814;8.652;2023-02-13T00:34:48;6.93;;;6.33;;
13279;SDS011;6708;49.814;8.652;2023-02-13T00:37:17;8.17;;;6.37;;
13279;SDS011;6708;49.814;8.652;2023-02-13T00:39:46;6.87;;;5.93;;
13279;SDS011;6708;49.814;8.652;2023-02-13T00:42:16;7.17;;;6.50;;
13279;SDS011;6708;49.814;8.652;2023-02-13T00:44:44;6.23;;;5.67;;
13279;SDS011;6708;49.814;8.652;2023-02-13T00:47:13;7.43;;;6.70;;
13279;SDS011;6708;49.814;8.652;2023-02-13T00:49:46;6.73;;;6.13;;
13279;SDS011;6708;49.814;8.652;2023-02-13T00:52:14;9.17;;;6.60;;
13279;SDS011;6708;49.814;8.652;2023-02-13T00:54:43;8.53;;;6.73;;
13279;SDS011;6708;49.814;8.652;2023-02-13T00:57:15;7.70;;;6.87;;
13279;SDS011;6708;49.814;8.652;2023-02-13T00:59:43;8.70;;;6.40;;
13279;SDS011;6708;49.814;8.652;2023-02-13T01:02:15;6.83;;;6.20;;
13279;SDS011;6708;49.814;8.652;2023-02-13T01:04:46;7.33;;;6.63;;
13279;SDS011;6708;49.814;8.652;2023-02-13T01:07:14;6.37;;;5.87;;
13279;SDS011;6708;49.814;8.652;2023-02-13T01:09:43;7.07;;;6.07;;
13279;SDS011;6708;49.814;8.652;2023-02-13T01:12:12;6.73;;;6.13;;
13279;SDS011;6708;49.814;8.652;2023-02-13T01:14:42;5.10;;;4.80;;
13279;SDS011;6708;49.814;8.652;2023-02-13T01:17:10;5.93;;;5.33;;
13279;SDS011;6708;49.814;8.652;2023-02-13T01:19:39;5.90;;;5.40;;
13279;SDS011;6708;49.814;8.652;2023-02-13T01:22:11;7.00;;;5.67;;
13279;SDS011;6708;49.814;8.652;2023-02-13T01:24:39;7.30;;;5.70;;
13279;SDS011;6708;49.814;8.652;2023-02-13T01:27:08;6.90;;;5.83;;
13279;SDS011;6708;49.814;8.652;2023-02-13T01:29:36;6.60;;;5.90;;
13279;SDS011;6708;49.814;8.652;2023-02-13T01:32:05;7.37;;;6.23;;
13279;SDS011;6708;49.814;8.652;2023-02-13T01:34:35;6.80;;;6.20;;
13279;SDS011;6708;49.814;8.652;2023-02-13T01:37:03;7.23;;;6.53;;
13279;SDS011;6708;49.814;8.652;2023-02-13T01:39:35;12.13;;;7.00;;
13279;SDS011;6708;49.814;8.652;2023-02-13T01:42:08;7.37;;;6.67;;
13279;SDS011;6708;49.814;8.652;2023-02-13T01:44:44;7.33;;;6.63;;
13279;SDS011;6708;49.814;8.652;2023-02-13T01:47:17;7.07;;;6.47;;
13279;SDS011;6708;49.814;8.652;2023-02-13T01:49:50;7.00;;;6.33;;
13279;SDS011;6708;49.814;8.652;2023-02-13T01:52:29;9.03;;;6.07;;
13279;SDS011;6708;49.814;8.652;2023-02-13T01:55:03;6.20;;;5.70;;
13279;SDS011;6708;49.814;8.652;2023-02-13T01:57:34;7.20;;;6.23;;
13279;SDS011;6708;49.814;8.652;2023-02-13T02:00:06;7.83;;;7.00;;
13279;SDS011;6708;49.814;8.652;2023-02-13T02:02:46;8.30;;;6.97;;
13279;SDS011;6708;49.814;8.652;2023-02-13T02:05:22;7.23;;;6.63;;
13279;SDS011;6708;49.814;8.652;2023-02-13T02:07:51;6.90;;;6.30;;
13279;SDS011;6708;49.814;8.652;2023-02-13T02:10:24;8.53;;;6.97;;
13279;SDS011;6708;49.814;8.652;2023-02-13T02:12:54;8.07;;;7.27;;
13279;SDS011;6708;49.814;8.652;2023-02-13T02:15:27;8.13;;;6.90;;
13279;SDS011;6708;49.814;8.652;2023-02-13T02:17:56;8.37;;;7.33;;
13279;SDS011;6708;49.814;8.652;2023-02-13T02:20:30;9.20;;;7.10;;
13279;SDS011;6708;49.814;8.652;2023-02-13T02:23:33;8.53;;;7.57;;
13279;SDS011;6708;49.814;8.652;2023-02-13T02:29:33;11.80;;;8.93;;
13279;SDS011;6708;49.814;8.652;2023-02-13T02:32:25;9.33;;;8.37;;
13279;SDS011;6708;49.814;8.652;2023-02-13T02:35:03;10.60;;;8.53;;
13279;SDS011;6708;49.814;8.652;2023-02-13T02:37:48;10.03;;;8.83;;
13279;SDS011;6708;49.814;8.652;2023-02-13T02:40:29;10.13;;;9.03;;
13279;SDS011;6708;49.814;8.652;2023-02-13T02:43:10;12.67;;;8.97;;
13279;SDS011;6708;49.814;8.652;2023-02-13T02:45:44;10.87;;;8.63;;
13279;SDS011;6708;49.814;8.652;2023-02-13T02:48:21;10.43;;;7.97;;
13279;SDS011;6708;49.814;8.652;2023-02-13T02:51:06;9.10;;;8.17;;
13279;SDS011;6708;49.814;8.652;2023-02-13T02:53:41;11.47;;;8.63;;
13279;SDS011;6708;49.814;8.652;2023-02-13T02:56:17;9.90;;;8.77;;
13279;SDS011;6708;49.814;8.652;2023-02-13T02:58:49;11.20;;;8.47;;
13279;SDS011;6708;49.814;8.652;2023-02-13T03:01:33;10.73;;;8.33;;
13279;SDS011;6708;49.814;8.652;2023-02-13T03:04:21;9.30;;;7.87;;
13279;SDS011;6708;49.814;8.652;2023-02-13T03:07:06;8.90;;;7.90;;
13279;SDS011;6708;49.814;8.652;2023-02-13T03:09:38;11.50;;;8.00;;
13279;SDS011;6708;49.814;8.652;2023-02-13T03:12:21;11.43;;;8.47;;
13279;SDS011;6708;49.814;8.652;2023-02-13T03:15:03;12.90;;;8.83;;
13279;SDS011;6708;49.814;8.652;2023-02-13T03:17:32;10.77;;;9.67;;
13279;SDS011;6708;49.814;8.652;2023-02-13T03:20:19;11.67;;;9.10;;
13279;SDS011;6708;49.814;8.652;2023-02-13T03:23:06;9.43;;;8.43;;
13279;SDS011;6708;49.814;8.652;2023-02-13T03:25:46;10.13;;;8.63;;
13279;SDS011;6708;49.814;8.652;2023-02-13T03:28:27;11.30;;;8.90;;
13279;SDS011;6708;49.814;8.652;2023-02-13T03:31:21;11.00;;;8.70;;
13279;SDS011;6708;49.814;8.652;2023-02-13T03:33:55;10.43;;;8.70;;
13279;SDS011;6708;49.814;8.652;2023-02-13T03:36:32;11.50;;;9.30;;
13279;SDS011;6708;49.814;8.652;2023-02-13T03:39:19;9.70;;;8.70;;
13279;SDS011;6708;49.814;8.652;2023-02-13T03:41:52;12.10;;;9.83;;
13279;SDS011;6708;49.814;8.652;2023-02-13T03:44:27;16.73;;;10.23;;
13279;SDS011;6708;49.814;8.652;2023-02-13T03:47:00;13.07;;;10.70;;
13279;SDS011;6708;49.814;8.652;2023-02-13T03:49:30;17.40;;;11.60;;
13279;SDS011;6708;49.814;8.652;2023-02-13T03:52:21;15.17;;;10.77;;
13279;SDS011;6708;49.814;8.652;2023-02-13T03:54:53;12.70;;;10.07;;
13279;SDS011;6708;49.814;8.652;2023-02-13T03:57:36;13.27;;;10.70;;
13279;SDS011;6708;49.814;8.652;2023-02-13T04:00:19;12.20;;;10.10;;
13279;SDS011;6708;49.814;8.652;2023-02-13T04:02:51;13.63;;;9.77;;
13279;SDS011;6708;49.814;8.652;2023-02-13T04:05:24;16.20;;;10.63;;
13279;SDS011;6708;49.814;8.652;2023-02-13T04:07:57;13.57;;;10.47;;
13279;SDS011;6708;49.814;8.652;2023-02-13T04:10:26;14.53;;;10.37;;
13279;SDS011;6708;49.814;8.652;2023-02-13T04:12:59;14.20;;;10.40;;
13279;SDS011;6708;49.814;8.652;2023-02-13T04:15:35;15.03;;;10.47;;
13279;SDS011;6708;49.814;8.652;2023-02-13T04:18:07;12.43;;;9.90;;
13279;SDS011;6708;49.814;8.652;2023-02-13T04:20:37;16.07;;;9.73;;
13279;SDS011;6708;49.814;8.652;2023-02-13T04:23:10;19.03;;;11.50;;
13279;SDS011;6708;49.814;8.652;2023-02-13T04:25:40;13.47;;;11.27;;
13279;SDS011;6708;49.814;8.652;2023-02-13T04:28:11;13.43;;;10.57;;
13279;SDS011;6708;49.814;8.652;2023-02-13T04:30:41;14.40;;;12.33;;
13279;SDS011;6708;49.814;8.652;2023-02-13T04:33:10;13.13;;;11.37;;
13279;SDS011;6708;49.814;8.652;2023-02-13T04:35:39;14.00;;;12.17;;
13279;SDS011;6708;49.814;8.652;2023-02-13T04:38:10;18.80;;;14.20;;
13279;SDS011;6708;49.814;8.652;2023-02-13T04:40:38;24.23;;;14.17;;
13279;SDS011;6708;49.814;8.652;2023-02-13T04:43:07;21.97;;;15.40;;
13279;SDS011;6708;49.814;8.652;2023-02-13T04:45:35;19.80;;;14.30;;
13279;SDS011;6708;49.814;8.652;2023-02-13T04:48:04;19.27;;;14.67;;
13279;SDS011;6708;49.814;8.652;2023-02-13T04:50:33;19.07;;;13.63;;
13279;SDS011;6708;49.814;8.652;2023-02-13T04:53:02;20.40;;;14.83;;
13279;SDS011;6708;49.814;8.652;2023-02-13T04:55:34;20.67;;;14.80;;
13279;SDS011;6708;49.814;8.652;2023-02-13T04:58:03;25.90;;;16.50;;
13279;SDS011;6708;49.814;8.652;2023-02-13T05:00:32;22.63;;;16.23;;
13279;SDS011;6708;49.814;8.652;2023-02-13T05:03:03;24.83;;;16.40;;
13279;SDS011;6708;49.814;8.652;2023-02-13T05:05:32;22.67;;;15.93;;
13279;SDS011;6708;49.814;8.652;2023-02-13T05:08:03;25.73;;;16.80;;
13279;SDS011;6708;49.814;8.652;2023-02-13T05:10:35;21.37;;;15.67;;
13279;SDS011;6708;49.814;8.652;2023-02-13T05:13:04;20.93;;;14.87;;
13279;SDS011;6708;49.814;8.652;2023-02-13T05:15:33;22.40;;;14.97;;
13279;SDS011;6708;49.814;8.652;2023-02-13T05:18:01;21.70;;;15.17;;
13279;SDS011;6708;49.814;8.652;2023-02-13T05:20:30;20.13;;;14.73;;
13279;SDS011;6708;49.814;8.652;2023-02-13T05:22:59;20.27;;;14.67;;
13279;SDS011;6708;49.814;8.652;2023-02-13T05:25:42;20.37;;;14.00;;
13279;SDS011;6708;49.814;8.652;2023-02-13T05:28:11;19.23;;;14.03;;
13279;SDS011;6708;49.814;8.652;2023-02-13T05:30:52;17.63;;;13.77;;
13279;SDS011;6708;49.814;8.652;2023-02-13T05:33:20;17.60;;;14.17;;
13279;SDS011;6708;49.814;8.652;2023-02-13T05:35:49;19.07;;;14.73;;
13279;SDS011;6708;49.814;8.652;2023-02-13T05:38:17;17.70;;;12.67;;
13279;SDS011;6708;49.814;8.652;2023-02-13T05:40:49;19.73;;;12.83;;
13279;SDS011;6708;49.814;8.652;2023-02-13T05:43:19;16.20;;;12.30;;
13279;SDS011;6708;49.814;8.652;2023-02-13T05:45:47;17.53;;;13.50;;
13279;SDS011;6708;49.814;8.652;2023-02-13T05:48:18;16.73;;;12.50;;
13279;SDS011;6708;49.814;8.652;2023-02-13T05:50:46;17.23;;;12.67;;
13279;SDS011;6708;49.814;8.652;2023-02-13T05:53:15;16.83;;;12.90;;
13279;SDS011;6708;49.814;8.652;2023-02-13T05:55:45;18.90;;;12.63;;
13279;SDS011;6708;49.814;8.652;2023-02-13T05:58:18;14.53;;;12.10;;
13279;SDS011;6708;49.814;8.652;2023-02-13T06:00:47;18.40;;;14.13;;
13279;SDS011;6708;49.814;8.652;2023-02-13T06:03:16;21.23;;;13.27;;
13279;SDS011;6708;49.814;8.652;2023-02-13T06:05:44;21.30;;;14.07;;
13279;SDS011;6708;49.814;8.652;2023-02-13T06:08:15;17.57;;;13.40;;
13279;SDS011;6708;49.814;8.652;2023-02-13T06:10:44;14.90;;;12.57;;
13279;SDS011;6708;49.814;8.652;2023-02-13T06:13:15;13.67;;;11.77;;
13279;SDS011;6708;49.814;8.652;2023-02-13T06:15:46;17.87;;;12.00;;
13279;SDS011;6708;49.814;8.652;2023-02-13T06:18:15;14.67;;;11.37;;
13279;SDS011;6708;49.814;8.652;2023-02-13T06:20:45;15.30;;;12.53;;
13279;SDS011;6708;49.814;8.652;2023-02-13T06:23:14;16.63;;;12.47;;
13279;SDS011;6708;49.814;8.652;2023-02-13T06:25:43;15.70;;;12.67;;
13279;SDS011;6708;49.814;8.652;2023-02-13T06:28:12;17.87;;;13.33;;
13279;SDS011;6708;49.814;8.652;2023-02-13T06:30:44;14.20;;;12.33;;
13279;SDS011;6708;49.814;8.652;2023-02-13T06:33:13;12.53;;;11.17;;
13279;SDS011;6708;49.814;8.652;2023-02-13T06:35:41;14.93;;;12.37;;
13279;SDS011;6708;49.814;8.652;2023-02-13T06:38:10;15.47;;;11.73;;
13279;SDS011;6708;49.814;8.652;2023-02-13T06:40:39;12.87;;;11.13;;
13279;SDS011;6708;49.814;8.652;2023-02-13T06:43:08;15.33;;;11.77;;
13279;SDS011;6708;49.814;8.652;2023-02-13T06:45:38;13.57;;;11.83;;
13279;SDS011;6708;49.814;8.652;2023-02-13T06:48:13;15.13;;;12.20;;
13279;SDS011;6708;49.814;8.652;2023-02-13T06:50:42;13.40;;;11.80;;
13279;SDS011;6708;49.814;8.652;2023-02-13T06:53:10;15.77;;;12.73;;
13279;SDS011;6708;49.814;8.652;2023-02-13T06:55:41;14.30;;;11.37;;
13279;SDS011;6708;49.814;8.652;2023-02-13T06:58:09;12.60;;;11.40;;
13279;SDS011;6708;49.814;8.652;2023-02-13T07:00:38;12.23;;;10.73;;
13279;SDS011;6708;49.814;8.652;2023-02-13T07:03:07;11.33;;;9.87;;
13279;SDS011;6708;49.814;8.652;2023-02-13T07:05:41;12.33;;;10.73;;
13279;SDS011;6708;49.814;8.652;2023-02-13T07:08:11;14.97;;;11.00;;
13279;SDS011;6708;49.814;8.652;2023-02-13T07:10:42;13.03;;;10.63;;
13279;SDS011;6708;49.814;8.652;2023-02-13T07:13:17;12.37;;;10.53;;
13279;SDS011;6708;49.814;8.652;2023-02-13T07:15:47;14.73;;;10.63;;
13279;SDS011;6708;49.814;8.652;2023-02-13T07:18:17;13.80;;;10.43;;
13279;SDS011;6708;49.814;8.652;2023-02-13T07:20:49;12.00;;;10.73;;
13279;SDS011;6708;49.814;8.652;2023-02-13T07:23:18;14.60;;;11.10;;
13279;SDS011;6708;49.814;8.652;2023-02-13T07:25:47;11.10;;;9.93;;
13279;SDS011;6708;49.814;8.652;2023-02-13T07:28:16;11.60;;;9.63;;
13279;SDS011;6708;49.814;8.652;2023-02-13T07:30:44;10.50;;;9.50;;
13279;SDS011;6708;49.814;8.652;2023-02-13T07:33:13;11.90;;;9.13;;
13279;SDS011;6708;49.814;8.652;2023-02-13T07:35:45;10.80;;;9.70;;
13279;SDS011;6708;49.814;8.652;2023-02-13T07:38:18;10.70;;;9.60;;
13279;SDS011;6708;49.814;8.652;2023-02-13T07:40:50;13.13;;;10.10;;
13279;SDS011;6708;49.814;8.652;2023-02-13T07:43:20;11.50;;;9.73;;
13279;SDS011;6708;49.814;8.652;2023-02-13T07:45:50;12.70;;;10.77;;
13279;SDS011;6708;49.814;8.652;2023-02-13T07:48:20;11.20;;;10.07;;
13279;SDS011;6708;49.814;8.652;2023-02-13T07:50:53;11.60;;;9.70;;
13279;SDS011;6708;49.814;8.652;2023-02-13T07:53:24;12.00;;;10.43;;
13279;SDS011;6708;49.814;8.652;2023-02-13T07:55:53;10.63;;;9.53;;
13279;SDS011;6708;49.814;8.652;2023-02-13T07:58:22;11.00;;;9.93;;
13279;SDS011;6708;49.814;8.652;2023-02-13T08:00:53;11.87;;;9.13;;
13279;SDS011;6708;49.814;8.652;2023-02-13T08:03:22;9.83;;;8.60;;
13279;SDS011;6708;49.814;8.652;2023-02-13T08:05:53;9.60;;;8.60;;
13279;SDS011;6708;49.814;8.652;2023-02-13T08:08:24;9.60;;;8.70;;
13279;SDS011;6708;49.814;8.652;2023-02-13T08:10:53;10.17;;;8.57;;
13279;SDS011;6708;49.814;8.652;2023-02-13T08:13:34;9.17;;;8.20;;
13279;SDS011;6708;49.814;8.652;2023-02-13T08:16:04;9.33;;;8.33;;
13279;SDS011;6708;49.814;8.652;2023-02-13T08:18:33;9.03;;;7.77;;
13279;SDS011;6708;49.814;8.652;2023-02-13T08:21:04;8.80;;;7.90;;
13279;SDS011;6708;49.814;8.652;2023-02-13T08:23:35;8.17;;;6.77;;
13279;SDS011;6708;49.814;8.652;2023-02-13T08:26:04;8.60;;;7.27;;
13279;SDS011;6708;49.814;8.652;2023-02-13T08:28:35;8.10;;;7.40;;
13279;SDS011;6708;49.814;8.652;2023-02-13T08:31:08;7.90;;;7.23;;
13279;SDS011;6708;49.814;8.652;2023-02-13T08:33:39;8.13;;;7.43;;
13279;SDS011;6708;49.814;8.652;2023-02-13T08:36:11;8.07;;;7.27;;
13279;SDS011;6708;49.814;8.652;2023-02-13T08:38:43;7.90;;;7.20;;
13279;SDS011;6708;49.814;8.652;2023-02-13T08:41:12;7.60;;;6.80;;
13279;SDS011;6708;49.814;8.652;2023-02-13T08:43:43;6.60;;;6.00;;
13279;SDS011;6708;49.814;8.652;2023-02-13T08:46:19;8.40;;;6.80;;
13279;SDS011;6708;49.814;8.652;2023-02-13T08:48:49;13.30;;;10.67;;
13279;SDS011;6708;49.814;8.652;2023-02-13T08:51:18;7.30;;;6.70;;
13279;SDS011;6708;49.814;8.652;2023-02-13T08:53:51;8.07;;;7.27;;
13279;SDS011;6708;49.814;8.652;2023-02-13T08:56:20;8.17;;;7.40;;
13279;SDS011;6708;49.814;8.652;2023-02-13T08:58:49;14.77;;;8.00;;
13279;SDS011;6708;49.814;8.652;2023-02-13T09:01:20;10.40;;;7.00;;
13279;SDS011;6708;49.814;8.652;2023-02-13T09:03:49;8.70;;;7.77;;
13279;SDS011;6708;49.814;8.652;2023-02-13T09:06:18;8.47;;;7.40;;
13279;SDS011;6708;49.814;8.652;2023-02-13T09:08:53;9.90;;;7.13;;
13279;SDS011;6708;49.814;8.652;2023-02-13T09:11:24;7.70;;;6.90;;
13279;SDS011;6708;49.814;8.652;2023-02-13T09:13:54;7.80;;;7.03;;
13279;SDS011;6708;49.814;8.652;2023-02-13T09:16:23;7.57;;;6.77;;
13279;SDS011;6708;49.814;8.652;2023-02-13T09:18:55;7.30;;;6.37;;
13279;SDS011;6708;49.814;8.652;2023-02-13T09:21:23;7.07;;;6.37;;
13279;SDS011;6708;49.814;8.652;2023-02-13T09:23:58;7.00;;;6.30;;
13279;SDS011;6708;49.814;8.652;2023-02-13T09:26:27;8.40;;;6.73;;
13279;SDS011;6708;49.814;8.652;2023-02-13T09:28:55;9.00;;;6.50;;
13279;SDS011;6708;49.814;8.652;2023-02-13T09:31:24;6.50;;;5.90;;
13279;SDS011;6708;49.814;8.652;2023-02-13T09:33:53;7.40;;;6.70;;
13279;SDS011;6708;49.814;8.652;2023-02-13T09:36:22;8.23;;;5.83;;
13279;SDS011;6708;49.814;8.652;2023-02-13T09:38:52;11.80;;;6.53;;
13279;SDS011;6708;49.814;8.652;2023-02-13T09:41:25;6.20;;;5.60;;
13279;SDS011;6708;49.814;8.652;2023-02-13T09:43:59;6.63;;;5.90;;
13279;SDS011;6708;49.814;8.652;2023-02-13T09:46:31;5.70;;;5.20;;
13279;SDS011;6708;49.814;8.652;2023-02-13T09:49:12;9.93;;;6.20;;
13279;SDS011;6708;49.814;8.652;2023-02-13T09:51:43;7.00;;;6.30;;
13279;SDS011;6708;49.814;8.652;2023-02-13T09:54:17;7.27;;;6.23;;
13279;SDS011;6708;49.814;8.652;2023-02-13T09:56:50;10.23;;;6.50;;
13279;SDS011;6708;49.814;8.652;2023-02-13T09:59:30;7.00;;;6.30;;
13279;SDS011;6708;49.814;8.652;2023-02-13T10:02:07;7.60;;;6.00;;
13279;SDS011;6708;49.814;8.652;2023-02-13T10:05:03;6.17;;;5.60;;
13279;SDS011;6708;49.814;8.652;2023-02-13T10:07:38;6.97;;;6.17;;
13279;SDS011;6708;49.814;8.652;2023-02-13T10:10:13;6.17;;;5.43;;
13279;SDS011;6708;49.814;8.652;2023-02-13T10:12:58;6.70;;;5.83;;
13279;SDS011;6708;49.814;8.652;2023-02-13T10:15:50;6.23;;;5.47;;
13279;SDS011;6708;49.814;8.652;2023-02-13T10:18:22;7.53;;;5.67;;
13279;SDS011;6708;49.814;8.652;2023-02-13T10:20:57;6.07;;;5.40;;
13279;SDS011;6708;49.814;8.652;2023-02-13T10:23:27;7.90;;;5.70;;
13279;SDS011;6708;49.814;8.652;2023-02-13T10:26:04;6.57;;;5.97;;
13279;SDS011;6708;49.814;8.652;2023-02-13T10:28:42;5.93;;;5.03;;
13279;SDS011;6708;49.814;8.652;2023-02-13T10:31:32;10.03;;;5.57;;
13279;SDS011;6708;49.814;8.652;2023-02-13T10:34:02;5.70;;;5.20;;
13279;SDS011;6708;49.814;8.652;2023-02-13T10:36:33;5.03;;;4.63;;
13279;SDS011;6708;49.814;8.652;2023-02-13T10:39:21;5.77;;;5.03;;
13279;SDS011;6708;49.814;8.652;2023-02-13T10:41:52;5.73;;;5.10;;
13279;SDS011;6708;49.814;8.652;2023-02-13T10:44:35;5.80;;;5.20;;
13279;SDS011;6708;49.814;8.652;2023-02-13T10:47:14;4.83;;;4.43;;
13279;SDS011;6708;49.814;8.652;2023-02-13T10:49:55;5.57;;;5.07;;
13279;SDS011;6708;49.814;8.652;2023-02-13T10:52:32;6.07;;;4.47;;
13279;SDS011;6708;49.814;8.652;2023-02-13T10:55:22;5.10;;;4.70;;
13279;SDS011;6708;49.814;8.652;2023-02-13T10:58:08;6.80;;;4.73;;
13279;SDS011;6708;49.814;8.652;2023-02-13T11:03:43;4.63;;;4.33;;
13279;SDS011;6708;49.814;8.652;2023-02-13T11:06:16;4.60;;;4.20;;
13279;SDS011;6708;49.814;8.652;2023-02-13T11:08:46;5.83;;;4.93;;
13279;SDS011;6708;49.814;8.652;2023-02-13T11:14:09;4.83;;;4.37;;
13279;SDS011;6708;49.814;8.652;2023-02-13T11:16:42;4.13;;;3.83;;
13279;SDS011;6708;49.814;8.652;2023-02-13T11:19:19;5.17;;;4.63;;
13279;SDS011;6708;49.814;8.652;2023-02-13T11:21:53;6.57;;;4.53;;
13279;SDS011;6708;49.814;8.652;2023-02-13T11:24:24;4.60;;;4.23;;
13279;SDS011;6708;49.814;8.652;2023-02-13T11:26:56;4.60;;;4.20;;
13279;SDS011;6708;49.814;8.652;2023-02-13T11:29:27;5.00;;;4.60;;
13279;SDS011;6708;49.814;8.652;2023-02-13T11:34:48;6.23;;;4.23;;
13279;SDS011;6708;49.814;8.652;2023-02-13T11:37:20;4.80;;;4.40;;
13279;SDS011;6708;49.814;8.652;2023-02-13T11:39:51;6.47;;;5.03;;
13279;SDS011;6708;49.814;8.652;2023-02-13T11:42:27;12.43;;;4.93;;
13279;SDS011;6708;49.814;8.652;2023-02-13T11:44:58;4.77;;;4.37;;
13279;SDS011;6708;49.814;8.652;2023-02-13T11:47:38;5.40;;;4.70;;
13279;SDS011;6708;49.814;8.652;2023-02-13T11:50:21;4.80;;;4.50;;
13279;SDS011;6708;49.814;8.652;2023-02-13T11:52:57;4.93;;;4.53;;
13279;SDS011;6708;49.814;8.652;2023-02-13T11:55:33;5.03;;;3.87;;
13279;SDS011;6708;49.814;8.652;2023-02-13T11:58:03;3.80;;;3.60;;
13279;SDS011;6708;49.814;8.652;2023-02-13T12:00:51;3.90;;;3.60;;
13279;SDS011;6708;49.814;8.652;2023-02-13T12:03:35;4.70;;;4.30;;
13279;SDS011;6708;49.814;8.652;2023-02-13T12:06:12;4.60;;;4.20;;
13279;SDS011;6708;49.814;8.652;2023-02-13T12:08:43;4.50;;;4.10;;
13279;SDS011;6708;49.814;8.652;2023-02-13T12:11:17;4.70;;;4.30;;
13279;SDS011;6708;49.814;8.652;2023-02-13T12:13:50;4.30;;;4.00;;
13279;SDS011;6708;49.814;8.652;2023-02-13T12:16:26;4.73;;;4.20;;
13279;SDS011;6708;49.814;8.652;2023-02-13T12:18:59;4.50;;;4.10;;
13279;SDS011;6708;49.814;8.652;2023-02-13T12:21:35;19.03;;;4.43;;
13279;SDS011;6708;49.814;8.652;2023-02-13T12:24:14;4.63;;;4.23;;
13279;SDS011;6708;49.814;8.652;2023-02-13T12:26:50;4.90;;;4.60;;
13279;SDS011;6708;49.814;8.652;2023-02-13T12:29:26;4.83;;;4.40;;
13279;SDS011;6708;49.814;8.652;2023-02-13T12:32:10;5.67;;;4.13;;
13279;SDS011;6708;49.814;8.652;2023-02-13T12:38:06;4.67;;;4.27;;
13279;SDS011;6708;49.814;8.652;2023-02-13T12:40:46;4.13;;;3.60;;
13279;SDS011;6708;49.814;8.652;2023-02-13T12:43:27;4.53;;;4.13;;
13279;SDS011;6708;49.814;8.652;2023-02-13T12:46:20;4.53;;;3.57;;
13279;SDS011;6708;49.814;8.652;2023-02-13T12:48:55;5.60;;;4.53;;
13279;SDS011;6708;49.814;8.652;2023-02-13T12:51:38;3.77;;;3.43;;
13279;SDS011;6708;49.814;8.652;2023-02-13T12:57:12;4.40;;;4.10;;
13279;SDS011;6708;49.814;8.652;2023-02-13T12:59:49;6.20;;;4.10;;
13279;SDS011;6708;49.814;8.652;2023-02-13T13:02:27;4.73;;;4.23;;
13279;SDS011;6708;49.814;8.652;2023-02-13T13:05:22;4.40;;;3.97;;
13279;SDS011;6708;49.814;8.652;2023-02-13T13:07:58;4.23;;;3.93;;
13279;SDS011;6708;49.814;8.652;2023-02-13T13:10:44;3.63;;;3.43;;
13279;SDS011;6708;49.814;8.652;2023-02-13T13:13:20;4.03;;;3.63;;
13279;SDS011;6708;49.814;8.652;2023-02-13T13:15:59;2.90;;;2.77;;
13279;SDS011;6708;49.814;8.652;2023-02-13T13:18:32;3.80;;;3.50;;
13279;SDS011;6708;49.814;8.652;2023-02-13T13:21:23;3.23;;;3.10;;
13279;SDS011;6708;49.814;8.652;2023-02-13T13:24:01;3.30;;;3.10;;
13279;SDS011;6708;49.814;8.652;2023-02-13T13:26:35;4.57;;;2.80;;
13279;SDS011;6708;49.814;8.652;2023-02-13T13:29:09;3.27;;;2.87;;
13279;SDS011;6708;49.814;8.652;2023-02-13T13:31:40;3.00;;;2.90;;
13279;SDS011;6708;49.814;8.652;2023-02-13T13:34:13;5.40;;;3.27;;
13279;SDS011;6708;49.814;8.652;2023-02-13T13:36:47;3.47;;;3.17;;
13279;SDS011;6708;49.814;8.652;2023-02-13T13:39:24;2.90;;;2.70;;
13279;SDS011;6708;49.814;8.652;2023-02-13T13:42:06;3.20;;;3.00;;
13279;SDS011;6708;49.814;8.652;2023-02-13T13:44:45;3.07;;;2.87;;
13279;SDS011;6708;49.814;8.652;2023-02-13T13:47:28;3.20;;;3.00;;
13279;SDS011;6708;49.814;8.652;2023-02-13T13:50:11;3.30;;;3.10;;
13279;SDS011;6708;49.814;8.652;2023-02-13T13:53:07;2.80;;;2.60;;
13279;SDS011;6708;49.814;8.652;2023-02-13T13:58:33;3.87;;;2.57;;
13279;SDS011;6708;49.814;8.652;2023-02-13T14:01:16;4.03;;;2.80;;
13279;SDS011;6708;49.814;8.652;2023-02-13T14:04:35;3.13;;;2.73;;
13279;SDS011;6708;49.814;8.652;2023-02-13T14:07:15;2.80;;;2.70;;
13279;SDS011;6708;49.814;8.652;2023-02-13T14:09:51;3.00;;;2.83;;
13279;SDS011;6708;49.814;8.652;2023-02-13T14:12:35;3.07;;;2.90;;
13279;SDS011;6708;49.814;8.652;2023-02-13T14:18:06;3.10;;;2.90;;
13279;SDS011;6708;49.814;8.652;2023-02-13T14:20:49;2.70;;;2.50;;
13279;SDS011;6708;49.814;8.652;2023-02-13T14:23:26;3.00;;;2.80;;
13279;SDS011;6708;49.814;8.652;2023-02-13T14:29:20;2.90;;;2.67;;
13279;SDS011;6708;49.814;8.652;2023-02-13T14:32:12;3.00;;;2.80;;
13279;SDS011;6708;49.814;8.652;2023-02-13T14:34:51;7.10;;;3.23;;
13279;SDS011;6708;49.814;8.652;2023-02-13T14:37:30;2.70;;;2.50;;
13279;SDS011;6708;49.814;8.652;2023-02-13T14:40:11;2.87;;;2.53;;
13279;SDS011;6708;49.814;8.652;2023-02-13T14:42:55;3.10;;;2.97;;
13279;SDS011;6708;49.814;8.652;2023-02-13T14:45:28;2.63;;;2.53;;
13279;SDS011;6708;49.814;8.652;2023-02-13T14:48:01;2.73;;;2.57;;
13279;SDS011;6708;49.814;8.652;2023-02-13T14:50:39;2.80;;;2.70;;
13279;SDS011;6708;49.814;8.652;2023-02-13T14:53:23;2.97;;;2.77;;
13279;SDS011;6708;49.814;8.652;2023-02-13T14:55:55;2.90;;;2.70;;
13279;SDS011;6708;49.814;8.652;2023-02-13T14:58:29;3.23;;;3.00;;
13279;SDS011;6708;49.814;8.652;2023-02-13T15:00:59;2.97;;;2.83;;
13279;SDS011;6708;49.814;8.652;2023-02-13T15:03:35;2.87;;;2.67;;
13279;SDS011;6708;49.814;8.652;2023-02-13T15:06:23;2.80;;;2.70;;
13279;SDS011;6708;49.814;8.652;2023-02-13T15:08:58;3.07;;;2.73;;
13279;SDS011;6708;49.814;8.652;2023-02-13T15:11:32;3.00;;;2.80;;
13279;SDS011;6708;49.814;8.652;2023-02-13T15:14:18;3.10;;;2.80;;
13279;SDS011;6708;49.814;8.652;2023-02-13T15:16:53;4.30;;;2.87;;
13279;SDS011;6708;49.814;8.652;2023-02-13T15:19:25;2.93;;;2.73;;
13279;SDS011;6708;49.814;8.652;2023-02-13T15:21:58;2.67;;;2.57;;
13279;SDS011;6708;49.814;8.652;2023-02-13T15:24:31;3.00;;;2.80;;
13279;SDS011;6708;49.814;8.652;2023-02-13T15:27:06;3.07;;;2.90;;
13279;SDS011;6708;49.814;8.652;2023-02-13T15:29:36;3.20;;;2.90;;
13279;SDS011;6708;49.814;8.652;2023-02-13T15:32:16;3.40;;;3.20;;
13279;SDS011;6708;49.814;8.652;2023-02-13T15:34:48;3.23;;;3.03;;
13279;SDS011;6708;49.814;8.652;2023-02-13T15:37:26;3.93;;;3.10;;
13279;SDS011;6708;49.814;8.652;2023-02-13T15:42:45;3.60;;;3.40;;
13279;SDS011;6708;49.814;8.652;2023-02-13T15:45:15;3.47;;;3.27;;
13279;SDS011;6708;49.814;8.652;2023-02-13T15:47:44;3.70;;;3.40;;
13279;SDS011;6708;49.814;8.652;2023-02-13T15:50:19;3.63;;;3.43;;
13279;SDS011;6708;49.814;8.652;2023-02-13T15:52:55;3.90;;;3.60;;
13279;SDS011;6708;49.814;8.652;2023-02-13T15:55:25;3.47;;;3.17;;
13279;SDS011;6708;49.814;8.652;2023-02-13T15:57:55;4.03;;;3.73;;
13279;SDS011;6708;49.814;8.652;2023-02-13T16:00:27;3.43;;;3.23;;
13279;SDS011;6708;49.814;8.652;2023-02-13T16:02:57;4.83;;;3.70;;
13279;SDS011;6708;49.814;8.652;2023-02-13T16:05:29;4.13;;;3.83;;